Aviation Digital Data Service (ADDS)

Output produced by TAFs form (2023 UTC 20 July 2017)
found at http://www.aviationweather.gov/adds/tafs/
 
METAR text: VCBI 202010Z 21004KT 9999 SCT016 25/23 Q1008 NOSIG
Conditions at: VCBI (COLOMBO/KATUNAYA, LK) observed 2010 UTC 20 July 2017
Temperature: 25.0°C (77°F)
Dewpoint: 23.0°C (73°F) [RH = 89%]
Pressure (altimeter): 29.76 inches Hg (1008.0 mb)
Winds: from the SSW (210 degrees) at 5 MPH (4 knots; 2.1 m/s)
Visibility: 6 or more miles (10+ km)
Ceiling: at least 12,000 feet AGL
Clouds: scattered clouds at 1600 feet AGL
Weather: no significant weather observed at this time

Forecast for: VCBI (COLOMBO/KATUNAYA, LK)
Text: TAF VCBI 201540Z 2018/2124 22010KT 9999 FEW016 TX31/2108Z TN27/2100Z
Forecast period: 1800 UTC 20 July 2017 to 0000 UTC 22 July 2017
Forecast type: FROM: standard forecast or significant change
Winds: from the SW (220 degrees) at 12 MPH (10 knots; 5.2 m/s)
Visibility: 6 or more miles (10+ km)
Clouds: few clouds at 1600 feet AGL
Weather: no significant weather forecast for this period
Text: PROB30
Forecast period: 1800 UTC 20 July 2017 to 0200 UTC 21 July 2017
Forecast type: TEMPORARY: The following changes expected for less than half the time period
Visibility: 4 miles (7 km)
Ceiling: 8000 feet AGL
Clouds: few clouds at 1200 feet AGL
scattered clouds at 1600 feet AGL
broken clouds at 8000 feet AGL
Weather: -SHRA  (light rain showers)